This is the latest recevied weather packets stored in our database for station/object E23XBQ-1. If no packets are shown the sender has not sent any weather packets the latest 10 day(s).
| Time | Temp. | Humidity | Pressure | Rain* | Wind** | Luminosity | Snow |
|---|---|---|---|---|---|---|---|
| 1777359412 | 37.78° C | 35% | 968 hPa | - | - | 0 W/m² | - |
| 1777358787 | 37.78° C | 35% | 968 hPa | - | - | 0 W/m² | - |
| 1777358163 | 38.33° C | 35% | 969 hPa | - | - | 0 W/m² | - |
| 1777357539 | 37.78° C | 37% | 969 hPa | - | - | 0 W/m² | - |
| 1777356914 | 37.78° C | 37% | 969 hPa | - | - | 0 W/m² | - |
| 1777356290 | 37.22° C | 38% | 969 hPa | - | - | 0 W/m² | - |
| 1777355666 | 37.22° C | 37% | 970 hPa | - | - | 0 W/m² | - |
| 1777355041 | 37.22° C | 39% | 970 hPa | - | - | 0 W/m² | - |
| 1777354417 | 36.67° C | 37% | 970 hPa | - | - | 0 W/m² | - |
| 1777353792 | 36.67° C | 37% | 970 hPa | - | - | 0 W/m² | - |
| 1777353167 | 36.67° C | 36% | 970 hPa | - | - | 0 W/m² | - |
| 1777352543 | 36.11° C | 40% | 971 hPa | - | - | 0 W/m² | - |
| 1777351918 | 36.11° C | 39% | 971 hPa | - | - | 0 W/m² | - |
| 1777351294 | 35.56° C | 43% | 971 hPa | - | - | 0 W/m² | - |
| 1777350669 | 35° C | 43% | 971 hPa | - | - | 0 W/m² | - |
| 1777350044 | 34.44° C | 45% | 971 hPa | - | - | 0 W/m² | - |
| 1777349419 | 32.78° C | 52% | 971 hPa | - | - | 0 W/m² | - |
| 1777348795 | 32.78° C | 53% | 972 hPa | - | - | 0 W/m² | - |
| 1777348170 | 32.78° C | 53% | 972 hPa | - | - | 0 W/m² | - |
| 1777347545 | 31.11° C | 60% | 972 hPa | - | - | 0 W/m² | - |
| 1777346920 | 31.11° C | 60% | 972 hPa | - | - | 0 W/m² | - |
| 1777346295 | 31.67° C | 57% | 972 hPa | - | - | 0 W/m² | - |
| 1777345670 | 32.22° C | 59% | 972 hPa | - | - | 0 W/m² | - |
| 1777345045 | 32.22° C | 57% | 972 hPa | - | - | 0 W/m² | - |
| 1777344421 | 31.67° C | 58% | 972 hPa | - | - | 0 W/m² | - |
* Rain since midnight (hover to see other rain measurements)
** Current wind speed in m/s (hover to see current wind gust speed)